Time;durP1;ratioP1;P1;durP2;ratioP2;P2;SDS_P1;SDS_P2;PMS_P1;PMS_P2;Temp;Humidity;BMP_temperature;BMP_pressure;BME280_temperature;BME280_humidity;BME280_pressure;Samples;Min_cycle;Max_cycle;Signal;HPM_P1;HPM_P2
2021/04/25 00:00:35;;;;;;;4.27;2.90;;;5.00;97.60;;;;;;5055244;28;20221;-76
2021/04/25 00:03:01;;;;;;;2.90;2.23;;;5.00;97.70;;;;;;5073071;28;20197;-75
2021/04/25 00:05:26;;;;;;;2.20;2.00;;;4.90;98.00;;;;;;5071982;28;20555;-76
2021/04/25 00:07:52;;;;;;;3.33;2.27;;;4.80;98.30;;;;;;5071838;28;20197;-76
2021/04/25 00:10:19;;;;;;;5.90;2.60;;;4.80;98.40;;;;;;5071861;28;20509;-76
2021/04/25 00:12:45;;;;;;;4.00;2.47;;;4.90;99.00;;;;;;5071939;28;20586;-76
2021/04/25 00:15:18;;;;;;;4.00;2.20;;;4.90;99.10;;;;;;5071832;28;20424;-76
2021/04/25 00:17:43;;;;;;;2.50;2.23;;;4.90;99.30;;;;;;5071659;28;20416;-76
2021/04/25 00:20:11;;;;;;;2.93;2.13;;;5.00;99.40;;;;;;5071981;28;20401;-76
2021/04/25 00:22:37;;;;;;;2.60;2.03;;;5.00;99.50;;;;;;5052779;28;20300;-76
2021/04/25 00:25:04;;;;;;;2.53;1.90;;;5.00;99.70;;;;;;5051712;28;20437;-76
2021/04/25 00:27:30;;;;;;;3.37;2.37;;;5.00;99.50;;;;;;5051436;28;20437;-76
2021/04/25 00:29:55;;;;;;;4.33;2.30;;;5.00;99.40;;;;;;5051859;28;20436;-76
2021/04/25 00:32:21;;;;;;;2.00;1.90;;;5.10;99.60;;;;;;5051278;28;20589;-76
2021/04/25 00:34:47;;;;;;;2.83;2.20;;;5.00;99.50;;;;;;5051773;28;20234;-76
2021/04/25 00:37:12;;;;;;;1.80;1.70;;;5.10;99.40;;;;;;5051181;28;20601;-76
2021/04/25 00:39:38;;;;;;;4.23;2.07;;;5.10;99.50;;;;;;5067176;28;20198;-76
2021/04/25 00:42:03;;;;;;;1.70;1.60;;;5.20;99.10;;;;;;5066660;28;20169;-76
2021/04/25 00:44:29;;;;;;;4.93;2.70;;;5.20;99.10;;;;;;5071839;28;20189;-76
2021/04/25 00:46:54;;;;;;;4.20;2.93;;;5.30;99.30;;;;;;5071778;28;20209;-77
2021/04/25 00:49:20;;;;;;;2.93;2.40;;;5.30;99.30;;;;;;5071573;28;20527;-77
2021/04/25 00:51:46;;;;;;;2.77;1.90;;;5.20;99.30;;;;;;5071414;28;20714;-76
2021/04/25 00:54:12;;;;;;;4.10;1.97;;;5.20;99.30;;;;;;5072578;28;20542;-76
2021/04/25 00:56:38;;;;;;;3.37;2.27;;;5.30;98.80;;;;;;5075312;28;20436;-76
2021/04/25 00:59:04;;;;;;;8.00;2.30;;;5.30;98.70;;;;;;5075591;28;20605;-76
2021/04/25 01:01:30;;;;;;;2.87;1.93;;;5.40;98.10;;;;;;5077437;28;20411;-76
2021/04/25 01:03:56;;;;;;;1.90;1.43;;;5.40;98.40;;;;;;5079869;28;20405;-76
2021/04/25 01:06:21;;;;;;;2.47;1.80;;;5.40;97.90;;;;;;5075502;28;20210;-76
2021/04/25 01:08:48;;;;;;;2.03;1.73;;;5.40;97.80;;;;;;5075193;28;20696;-76
2021/04/25 01:11:14;;;;;;;4.70;2.07;;;5.50;97.90;;;;;;5072876;28;20408;-76
2021/04/25 01:13:39;;;;;;;2.40;1.83;;;5.50;98.20;;;;;;5072957;28;20409;-75
2021/04/25 01:16:06;;;;;;;2.13;1.50;;;5.50;98.30;;;;;;5074885;28;20480;-75
2021/04/25 01:18:31;;;;;;;2.20;1.57;;;5.40;98.20;;;;;;5075060;28;20273;-75
2021/04/25 01:21:04;;;;;;;3.20;1.97;;;5.50;97.80;;;;;;5073490;28;20453;-76
2021/04/25 01:23:30;;;;;;;3.87;2.27;;;5.60;97.90;;;;;;5074923;28;20593;-75
2021/04/25 01:25:56;;;;;;;3.00;2.13;;;5.60;98.00;;;;;;5074343;28;20520;-76
2021/04/25 01:28:22;;;;;;;2.27;1.20;;;5.60;97.90;;;;;;5074588;28;20400;-75
2021/04/25 01:30:48;;;;;;;2.37;1.73;;;5.60;97.70;;;;;;5074575;28;20162;-76
2021/04/25 01:33:14;;;;;;;2.70;1.73;;;5.60;97.60;;;;;;5074597;28;20446;-76
2021/04/25 01:35:39;;;;;;;1.67;1.47;;;5.70;97.60;;;;;;5074753;28;20495;-77
2021/04/25 01:38:05;;;;;;;1.97;1.77;;;5.70;97.60;;;;;;5075016;28;20186;-77
2021/04/25 01:40:31;;;;;;;2.23;1.70;;;5.60;97.30;;;;;;5075112;28;20293;-77
2021/04/25 01:43:01;;;;;;;3.10;1.93;;;5.70;97.50;;;;;;5074388;28;20169;-76
2021/04/25 01:45:28;;;;;;;2.47;1.80;;;5.70;97.50;;;;;;5074330;28;20448;-76
2021/04/25 01:47:57;;;;;;;5.17;2.10;;;5.70;97.60;;;;;;5073992;28;20950;-78
2021/04/25 01:50:24;;;;;;;4.83;2.60;;;5.80;97.90;;;;;;5074558;28;20408;-78
2021/04/25 01:52:50;;;;;;;1.73;1.53;;;5.90;97.90;;;;;;5074384;28;20404;-77
2021/04/25 01:55:17;;;;;;;2.80;1.87;;;6.00;97.70;;;;;;5074325;28;20405;-77
2021/04/25 01:57:43;;;;;;;2.50;2.00;;;5.90;97.50;;;;;;5073985;28;20514;-76
2021/04/25 02:00:15;;;;;;;3.37;1.90;;;6.00;98.00;;;;;;5073759;28;20412;-77
2021/04/25 02:02:43;;;;;;;4.07;2.10;;;6.10;97.60;;;;;;5073874;28;21101;-77
2021/04/25 02:05:10;;;;;;;2.43;1.50;;;6.10;97.50;;;;;;5073883;28;20405;-76
2021/04/25 02:07:35;;;;;;;3.53;2.30;;;6.10;97.60;;;;;;5073443;28;20432;-77
2021/04/25 02:10:03;;;;;;;2.60;2.40;;;6.20;97.40;;;;;;5074192;28;20816;-76
2021/04/25 02:12:29;;;;;;;2.77;1.90;;;6.20;97.50;;;;;;5074638;28;20173;-77
2021/04/25 02:14:54;;;;;;;2.30;1.73;;;6.10;97.50;;;;;;5075090;28;20409;-77
2021/04/25 02:17:20;;;;;;;3.33;1.80;;;6.10;97.70;;;;;;5073317;28;20275;-77
2021/04/25 02:19:45;;;;;;;3.73;2.53;;;6.10;98.10;;;;;;5073898;28;20170;-76
2021/04/25 02:22:11;;;;;;;2.23;2.03;;;6.10;98.00;;;;;;5058022;28;20183;-75
2021/04/25 02:24:36;;;;;;;1.80;1.70;;;6.20;97.90;;;;;;5053660;28;20179;-76
2021/04/25 02:27:02;;;;;;;4.27;1.70;;;6.20;97.90;;;;;;5053181;28;20924;-77
2021/04/25 02:29:27;;;;;;;2.07;1.87;;;6.10;97.90;;;;;;5053567;28;20171;-78
2021/04/25 02:31:53;;;;;;;1.87;1.53;;;6.10;97.70;;;;;;5053337;28;20178;-77
2021/04/25 02:34:18;;;;;;;2.00;1.80;;;6.00;97.50;;;;;;5053540;28;20185;-77
2021/04/25 02:36:44;;;;;;;2.97;1.60;;;6.00;97.50;;;;;;5054368;28;20203;-77
2021/04/25 02:39:09;;;;;;;2.17;1.87;;;6.00;97.80;;;;;;5071859;28;20243;-77
2021/04/25 02:41:35;;;;;;;2.93;1.80;;;6.00;98.40;;;;;;5066003;28;20603;-77
2021/04/25 02:44:00;;;;;;;2.80;2.33;;;6.00;98.00;;;;;;5073409;28;20235;-77
2021/04/25 02:46:26;;;;;;;3.27;2.00;;;5.90;97.90;;;;;;5072919;28;20205;-77
2021/04/25 02:48:52;;;;;;;3.57;2.13;;;5.80;98.10;;;;;;5073435;28;20171;-77
2021/04/25 02:51:18;;;;;;;2.87;1.67;;;5.70;98.50;;;;;;5054907;28;20270;-76
2021/04/25 02:53:43;;;;;;;1.60;1.50;;;5.60;98.60;;;;;;5073292;28;20166;-77
2021/04/25 02:56:09;;;;;;;2.03;1.50;;;5.60;98.80;;;;;;5072890;28;20209;-77
2021/04/25 02:58:34;;;;;;;4.27;2.00;;;5.40;98.60;;;;;;5072750;28;20189;-77
2021/04/25 03:01:00;;;;;;;3.93;1.53;;;5.30;98.80;;;;;;5072811;28;20227;-76
2021/04/25 03:03:25;;;;;;;4.97;2.00;;;5.20;99.10;;;;;;5072849;28;20170;-76
2021/04/25 03:05:55;;;;;;;3.50;1.80;;;5.20;99.20;;;;;;5072634;28;20193;-75
2021/04/25 03:08:20;;;;;;;1.80;1.37;;;5.20;99.40;;;;;;5072621;28;20632;-76
2021/04/25 03:10:46;;;;;;;4.93;1.60;;;5.20;99.40;;;;;;5072766;28;20434;-76
2021/04/25 03:13:11;;;;;;;3.00;2.70;;;5.10;99.20;;;;;;5072799;28;20511;-77
2021/04/25 03:15:37;;;;;;;3.50;1.90;;;5.00;99.50;;;;;;5072297;28;20541;-76
2021/04/25 03:18:02;;;;;;;1.80;1.53;;;5.10;99.80;;;;;;5072491;28;20189;-76
2021/04/25 03:20:28;;;;;;;2.30;1.80;;;5.00;99.90;;;;;;5073096;28;20613;-76
2021/04/25 03:22:54;;;;;;;3.80;1.90;;;5.10;99.90;;;;;;5068867;28;20196;-77
2021/04/25 03:25:19;;;;;;;2.80;2.50;;;5.10;99.90;;;;;;5076225;28;20178;-76
2021/04/25 03:27:45;;;;;;;3.13;2.70;;;5.20;99.90;;;;;;5073961;28;20194;-76
2021/04/25 03:30:13;;;;;;;3.27;1.90;;;5.40;99.90;;;;;;5057644;28;20540;-76
2021/04/25 03:32:39;;;;;;;2.30;1.40;;;5.60;99.90;;;;;;5074382;28;20423;-77
2021/04/25 03:35:07;;;;;;;2.53;2.33;;;5.60;99.90;;;;;;5071988;28;20400;-76
2021/04/25 03:37:32;;;;;;;2.90;2.50;;;5.50;99.90;;;;;;5071518;28;20287;-76
2021/04/25 03:39:58;;;;;;;4.07;2.60;;;5.40;99.90;;;;;;5072067;28;20445;-77
2021/04/25 03:42:24;;;;;;;6.10;3.13;;;5.40;99.90;;;;;;5071995;28;20701;-76
2021/04/25 03:44:49;;;;;;;7.90;4.40;;;5.40;99.90;;;;;;5073498;28;20446;-76
2021/04/25 03:47:15;;;;;;;6.83;4.93;;;5.20;99.90;;;;;;5055258;28;20281;-76
2021/04/25 03:49:40;;;;;;;6.90;4.80;;;5.10;99.90;;;;;;5073640;28;20170;-76
2021/04/25 03:52:07;;;;;;;8.40;5.03;;;5.00;99.90;;;;;;5073071;28;20170;-76
2021/04/25 03:54:33;;;;;;;5.77;3.93;;;4.90;99.90;;;;;;5072915;28;20176;-76
2021/04/25 03:56:59;;;;;;;5.57;4.50;;;4.70;99.90;;;;;;5073311;28;20806;-76
2021/04/25 03:59:25;;;;;;;7.83;4.53;;;4.60;99.90;;;;;;5073360;28;20895;-75
2021/04/25 04:01:51;;;;;;;6.47;4.70;;;4.60;99.90;;;;;;5072235;28;20428;-75
2021/04/25 04:04:16;;;;;;;4.40;3.73;;;4.50;99.90;;;;;;5071226;28;20844;-76
2021/04/25 04:06:42;;;;;;;8.07;4.60;;;4.60;99.90;;;;;;5071068;28;20272;-76
2021/04/25 04:09:07;;;;;;;4.43;3.33;;;4.50;99.90;;;;;;5071536;28;20170;-76
2021/04/25 04:11:33;;;;;;;4.40;3.50;;;4.50;99.90;;;;;;5071301;28;20170;-76
2021/04/25 04:13:58;;;;;;;4.30;3.87;;;4.50;99.90;;;;;;5071171;28;20166;-76
2021/04/25 04:16:25;;;;;;;5.73;3.40;;;4.60;99.90;;;;;;5070736;28;20481;-76
2021/04/25 04:18:51;;;;;;;5.10;3.57;;;4.60;99.90;;;;;;5070963;28;20162;-76
2021/04/25 04:21:16;;;;;;;6.27;3.83;;;4.60;99.90;;;;;;5063851;28;21046;-77
2021/04/25 04:23:42;;;;;;;5.13;4.53;;;4.70;99.90;;;;;;5051945;28;20206;-77
2021/04/25 04:26:08;;;;;;;4.17;3.77;;;4.70;99.90;;;;;;5051031;28;20225;-75
2021/04/25 04:28:34;;;;;;;6.10;3.40;;;4.80;99.90;;;;;;5050949;28;20535;-76
2021/04/25 04:30:59;;;;;;;3.50;3.20;;;4.80;99.90;;;;;;5050781;28;20492;-75
2021/04/25 04:33:25;;;;;;;3.63;2.93;;;4.80;99.90;;;;;;5050892;28;20167;-76
2021/04/25 04:35:50;;;;;;;4.20;3.10;;;4.90;99.90;;;;;;5050506;28;20175;-77
2021/04/25 04:38:16;;;;;;;4.17;3.43;;;4.90;99.90;;;;;;5059038;28;20273;-77
2021/04/25 04:40:41;;;;;;;4.07;3.40;;;4.90;99.90;;;;;;5062645;28;20637;-76
2021/04/25 04:43:06;;;;;;;4.90;3.23;;;5.00;99.90;;;;;;5053078;28;20162;-76
2021/04/25 04:45:32;;;;;;;9.50;4.20;;;5.00;99.90;;;;;;5071151;28;20200;-77
2021/04/25 04:47:57;;;;;;;6.17;3.00;;;5.00;99.90;;;;;;5070517;28;20768;-76
2021/04/25 04:50:23;;;;;;;7.17;2.97;;;5.00;99.90;;;;;;5070693;28;20166;-77
2021/04/25 04:52:48;;;;;;;4.17;2.70;;;5.10;99.90;;;;;;5070873;28;20556;-76
2021/04/25 04:55:16;;;;;;;4.53;3.33;;;5.20;99.90;;;;;;5070912;28;20219;-77
2021/04/25 04:57:42;;;;;;;5.53;2.93;;;5.20;99.90;;;;;;5070557;28;20187;-76
2021/04/25 05:00:09;;;;;;;5.33;3.27;;;5.30;99.90;;;;;;5070963;28;20393;-77
2021/04/25 05:02:34;;;;;;;3.40;2.60;;;5.30;99.90;;;;;;5070581;28;20395;-77
2021/04/25 05:05:00;;;;;;;4.20;3.60;;;5.40;99.90;;;;;;5071015;28;20404;-76
2021/04/25 05:07:26;;;;;;;4.30;3.33;;;5.50;99.90;;;;;;5070716;28;20217;-76
2021/04/25 05:09:51;;;;;;;4.17;3.50;;;5.60;99.90;;;;;;5071020;28;20173;-76
2021/04/25 05:12:17;;;;;;;10.07;4.00;;;5.50;99.90;;;;;;5071105;28;20688;-76
2021/04/25 05:14:43;;;;;;;4.50;3.30;;;5.60;99.90;;;;;;5072266;28;20194;-76
2021/04/25 05:17:09;;;;;;;5.57;3.50;;;5.60;99.90;;;;;;5072361;28;20194;-76
2021/04/25 05:19:34;;;;;;;6.23;3.10;;;5.60;99.90;;;;;;5071135;28;20522;-77
2021/04/25 05:22:00;;;;;;;7.13;3.73;;;5.70;99.90;;;;;;5052143;28;20235;-76
2021/04/25 05:24:25;;;;;;;4.17;3.47;;;5.80;99.90;;;;;;5054089;28;20361;-76
2021/04/25 05:26:51;;;;;;;4.60;4.10;;;5.90;99.90;;;;;;5051090;28;20211;-77
2021/04/25 05:29:17;;;;;;;5.33;3.47;;;5.90;99.90;;;;;;5051584;28;20178;-76
2021/04/25 05:31:44;;;;;;;7.77;3.87;;;5.90;99.90;;;;;;5051551;28;20409;-77
2021/04/25 05:34:09;;;;;;;4.10;3.70;;;5.90;99.90;;;;;;5051475;28;20167;-77
2021/04/25 05:36:35;;;;;;;3.63;3.13;;;5.90;99.90;;;;;;5051120;28;20511;-77
2021/04/25 05:39:01;;;;;;;4.63;2.77;;;5.90;99.90;;;;;;5065867;28;20657;-77
2021/04/25 05:41:26;;;;;;;4.57;2.73;;;5.90;99.90;;;;;;5071514;28;20163;-77
2021/04/25 05:43:52;;;;;;;4.33;2.90;;;5.80;99.90;;;;;;5071600;28;20415;-76
2021/04/25 05:46:17;;;;;;;5.83;3.07;;;5.90;99.90;;;;;;5070237;28;20230;-76
2021/04/25 05:48:45;;;;;;;2.60;2.40;;;6.00;99.90;;;;;;5073865;28;20176;-77
2021/04/25 05:51:11;;;;;;;6.20;3.63;;;6.10;99.90;;;;;;5074665;28;20165;-77
2021/04/25 05:53:36;;;;;;;3.40;2.53;;;6.20;99.90;;;;;;5074591;28;20487;-77
2021/04/25 05:56:02;;;;;;;3.77;2.40;;;6.20;99.90;;;;;;5075056;28;20934;-76
2021/04/25 05:58:28;;;;;;;5.33;2.70;;;6.20;99.90;;;;;;5076359;28;20177;-77
2021/04/25 06:00:53;;;;;;;2.83;2.50;;;6.30;99.90;;;;;;5077085;28;20412;-77
2021/04/25 06:03:19;;;;;;;5.73;2.90;;;6.40;99.90;;;;;;5077325;28;20232;-76
2021/04/25 06:05:44;;;;;;;4.13;2.03;;;6.40;99.90;;;;;;5075728;28;20198;-77
2021/04/25 06:08:10;;;;;;;5.80;2.43;;;6.70;99.90;;;;;;5073971;28;20170;-77
2021/04/25 06:10:36;;;;;;;5.70;2.20;;;6.80;99.90;;;;;;5074757;28;20224;-76
2021/04/25 06:13:01;;;;;;;3.07;1.80;;;6.90;99.90;;;;;;5074308;28;20201;-76
2021/04/25 06:15:27;;;;;;;2.50;2.00;;;6.90;99.90;;;;;;5056043;28;20459;-77
2021/04/25 06:17:53;;;;;;;3.10;2.33;;;7.10;99.90;;;;;;5073761;28;20198;-77
2021/04/25 06:20:19;;;;;;;2.13;1.93;;;7.20;99.90;;;;;;5074281;28;20163;-77
2021/04/25 06:22:46;;;;;;;3.70;2.30;;;7.20;99.90;;;;;;5054185;28;20424;-77
2021/04/25 06:25:13;;;;;;;3.33;2.23;;;7.40;99.90;;;;;;5054760;28;20470;-77
2021/04/25 06:27:39;;;;;;;3.10;2.07;;;7.50;99.90;;;;;;5037482;28;20535;-77
2021/04/25 06:30:06;;;;;;;4.13;2.20;;;7.40;99.70;;;;;;5057243;28;20484;-77
2021/04/25 06:32:31;;;;;;;3.57;2.33;;;7.40;99.40;;;;;;5056025;28;20406;-77
2021/04/25 06:34:56;;;;;;;2.33;2.13;;;7.70;99.90;;;;;;5054383;28;20404;-77
2021/04/25 06:37:22;;;;;;;4.40;2.20;;;7.70;98.90;;;;;;5053784;28;20238;-78
2021/04/25 06:39:47;;;;;;;6.73;3.53;;;7.80;98.60;;;;;;5069142;28;20195;-78
2021/04/25 06:42:13;;;;;;;2.57;2.30;;;7.90;98.10;;;;;;5069949;28;20231;-77
2021/04/25 06:44:38;;;;;;;4.60;2.50;;;7.90;97.50;;;;;;5074163;28;20542;-77
2021/04/25 06:47:04;;;;;;;4.57;2.63;;;7.60;98.40;;;;;;5073873;28;20271;-77
2021/04/25 06:49:29;;;;;;;3.97;2.73;;;8.10;98.70;;;;;;5074293;28;20277;-77
2021/04/25 06:51:55;;;;;;;2.50;2.10;;;8.30;98.20;;;;;;5073820;28;20170;-77
2021/04/25 06:54:21;;;;;;;8.53;2.33;;;8.50;97.50;;;;;;5074445;28;20161;-75
2021/04/25 06:56:46;;;;;;;2.33;2.10;;;8.70;96.40;;;;;;5074253;28;20193;-74
2021/04/25 06:59:12;;;;;;;8.13;3.03;;;8.50;95.70;;;;;;5072357;28;20303;-76
2021/04/25 07:01:37;;;;;;;2.70;2.07;;;8.30;96.30;;;;;;5074676;28;20223;-78
2021/04/25 07:04:03;;;;;;;6.20;2.17;;;8.70;95.80;;;;;;5078312;28;20916;-76
2021/04/25 07:06:29;;;;;;;3.53;1.73;;;8.80;95.00;;;;;;5073803;28;20204;-76
2021/04/25 07:08:54;;;;;;;3.90;2.27;;;9.00;94.60;;;;;;5071737;28;20427;-77
2021/04/25 07:11:20;;;;;;;4.40;1.77;;;9.30;93.90;;;;;;5048549;28;20162;-77
2021/04/25 07:13:45;;;;;;;3.60;2.00;;;9.20;93.00;;;;;;5073210;28;20249;-76
2021/04/25 07:16:10;;;;;;;2.67;1.80;;;8.70;93.00;;;;;;5074315;28;20936;-77
2021/04/25 07:18:36;;;;;;;4.43;2.10;;;8.90;93.50;;;;;;5073009;28;20181;-77
2021/04/25 07:21:01;;;;;;;2.87;2.03;;;9.20;92.60;;;;;;5067381;28;20198;-78
2021/04/25 07:23:27;;;;;;;3.60;2.10;;;9.00;91.60;;;;;;5056402;28;20238;-77
2021/04/25 07:25:54;;;;;;;2.57;1.67;;;8.80;91.50;;;;;;5054431;28;20261;-77
2021/04/25 07:28:21;;;;;;;3.77;1.67;;;8.50;91.60;;;;;;5072517;28;20198;-78
2021/04/25 07:30:47;;;;;;;1.50;1.40;;;8.50;91.80;;;;;;5072532;28;20411;-77
2021/04/25 07:33:14;;;;;;;2.40;1.80;;;8.70;91.30;;;;;;5072749;28;20458;-76
2021/04/25 07:35:40;;;;;;;3.90;1.57;;;8.60;90.70;;;;;;5072586;28;20405;-77
2021/04/25 07:38:05;;;;;;;3.03;1.87;;;8.80;90.00;;;;;;5072118;28;20564;-77
2021/04/25 07:40:31;;;;;;;1.63;1.20;;;8.90;90.00;;;;;;5072716;28;20978;-77
2021/04/25 07:42:57;;;;;;;6.90;2.30;;;8.60;90.50;;;;;;5072460;28;20251;-77
2021/04/25 07:45:22;;;;;;;3.10;1.60;;;8.70;88.80;;;;;;5073704;28;20177;-78
2021/04/25 07:47:48;;;;;;;2.80;1.70;;;8.70;90.10;;;;;;5054933;28;20939;-77
2021/04/25 07:50:14;;;;;;;2.50;1.70;;;8.60;90.10;;;;;;5075988;28;20174;-77
2021/04/25 07:52:41;;;;;;;2.10;1.50;;;8.80;89.00;;;;;;5076217;28;20252;-77
2021/04/25 07:55:09;;;;;;;5.30;1.87;;;8.90;88.00;;;;;;5078312;28;20411;-78
2021/04/25 07:57:36;;;;;;;3.90;2.13;;;8.70;87.80;;;;;;5082882;28;20835;-77
2021/04/25 08:00:04;;;;;;;1.83;1.60;;;8.80;89.30;;;;;;5075507;28;20415;-78
2021/04/25 08:02:30;;;;;;;1.87;1.50;;;8.90;88.10;;;;;;5055834;28;20416;-78
2021/04/25 08:04:55;;;;;;;2.10;1.90;;;8.70;87.70;;;;;;5073616;28;20420;-78
2021/04/25 08:07:21;;;;;;;4.20;2.47;;;8.60;90.00;;;;;;5072369;28;20630;-77
2021/04/25 08:09:46;;;;;;;1.80;1.37;;;8.60;91.30;;;;;;5072082;28;20188;-78
2021/04/25 08:12:12;;;;;;;1.93;1.57;;;8.90;89.60;;;;;;5054215;28;20177;-77
2021/04/25 08:14:37;;;;;;;1.93;1.63;;;9.30;87.80;;;;;;5072106;28;20170;-76
2021/04/25 08:17:03;;;;;;;3.37;1.80;;;9.90;86.60;;;;;;5058570;28;20211;-76
2021/04/25 08:19:29;;;;;;;1.53;1.43;;;10.00;85.90;;;;;;5071875;28;20540;-77
2021/04/25 08:21:55;;;;;;;4.40;2.20;;;10.20;85.60;;;;;;5071777;28;20546;-77
2021/04/25 08:24:21;;;;;;;4.20;1.67;;;10.00;87.20;;;;;;5055621;28;20875;-76
2021/04/25 08:26:46;;;;;;;2.23;1.30;;;9.90;89.70;;;;;;5074818;28;20261;-77
2021/04/25 08:29:12;;;;;;;1.57;1.30;;;9.80;90.40;;;;;;5072548;28;20245;-77
2021/04/25 08:31:37;;;;;;;2.37;1.50;;;8.80;91.70;;;;;;5071944;28;20549;-77
2021/04/25 08:34:03;;;;;;;1.73;1.63;;;8.80;93.00;;;;;;5065710;28;20182;-77
2021/04/25 08:36:29;;;;;;;1.97;1.70;;;8.70;93.60;;;;;;5063119;28;20205;-77
2021/04/25 08:38:54;;;;;;;3.50;1.90;;;8.30;95.50;;;;;;5072521;28;20181;-78
2021/04/25 08:41:21;;;;;;;3.90;2.20;;;8.20;96.70;;;;;;5072902;28;20199;-74
2021/04/25 08:43:48;;;;;;;3.97;2.30;;;8.40;97.10;;;;;;5072441;28;20166;-74
2021/04/25 08:46:18;;;;;;;4.83;2.03;;;8.20;98.00;;;;;;5076326;28;20485;-78
2021/04/25 08:48:47;;;;;;;2.40;1.97;;;8.00;98.90;;;;;;5076618;28;20408;-80
2021/04/25 08:51:13;;;;;;;5.63;2.33;;;7.90;99.00;;;;;;5078446;28;20397;-75
2021/04/25 08:53:39;;;;;;;1.77;1.60;;;7.70;99.60;;;;;;5075837;28;20405;-80
2021/04/25 08:56:05;;;;;;;2.37;2.17;;;8.10;99.30;;;;;;5046733;28;20441;-78
2021/04/25 08:58:33;;;;;;;3.07;2.10;;;8.30;99.00;;;;;;5074451;28;20408;-80
2021/04/25 09:00:58;;;;;;;2.40;1.57;;;8.20;98.20;;;;;;5052019;28;20170;-75
2021/04/25 09:03:24;;;;;;;3.00;1.60;;;7.90;98.60;;;;;;5072534;28;20409;-78
2021/04/25 09:05:49;;;;;;;2.73;2.07;;;7.80;99.20;;;;;;5072091;28;20196;-74
2021/04/25 09:08:15;;;;;;;3.40;2.07;;;7.90;99.90;;;;;;5073305;28;20162;-75
2021/04/25 09:10:43;;;;;;;4.57;2.20;;;7.10;99.90;;;;;;5069642;28;20178;-74
2021/04/25 09:13:20;;;;;;;2.23;2.00;;;7.10;99.90;;;;;;5047942;28;20166;-75
2021/04/25 09:15:46;;;;;;;3.83;3.30;;;7.00;99.90;;;;;;5074598;28;20411;-75
2021/04/25 09:18:12;;;;;;;4.60;2.33;;;7.20;99.90;;;;;;5063751;28;20922;-76
2021/04/25 09:20:47;;;;;;;3.33;2.20;;;7.10;99.90;;;;;;5052983;28;20401;-75
2021/04/25 09:23:22;;;;;;;3.40;1.97;;;7.20;99.90;;;;;;5055847;28;20182;-75
2021/04/25 09:25:59;;;;;;;2.27;2.07;;;7.40;99.90;;;;;;5057693;28;20444;-77
2021/04/25 09:28:25;;;;;;;4.70;1.73;;;7.50;99.90;;;;;;5058500;28;20397;-77
2021/04/25 09:30:56;;;;;;;4.00;1.87;;;7.40;99.90;;;;;;5056761;28;20437;-76
2021/04/25 09:33:23;;;;;;;2.10;1.83;;;7.20;99.90;;;;;;5055784;28;20163;-76
2021/04/25 09:35:50;;;;;;;2.10;1.60;;;7.10;99.90;;;;;;5055592;28;20420;-76
2021/04/25 09:38:16;;;;;;;1.50;1.40;;;6.90;99.90;;;;;;5064064;28;20455;-77
2021/04/25 09:40:44;;;;;;;3.60;1.83;;;7.00;99.90;;;;;;5077725;28;20405;-76
2021/04/25 09:43:15;;;;;;;3.13;2.03;;;7.00;99.90;;;;;;5077951;28;20653;-76
2021/04/25 09:45:47;;;;;;;3.57;2.37;;;6.90;99.90;;;;;;5079160;28;20476;-76
2021/04/25 09:48:25;;;;;;;6.43;1.70;;;7.20;99.90;;;;;;5075780;28;20464;-76
2021/04/25 09:51:14;;;;;;;2.30;1.87;;;7.70;99.90;;;;;;5057659;28;20420;-76
2021/04/25 09:53:42;;;;;;;2.60;1.93;;;7.70;99.90;;;;;;5075639;28;20404;-76
2021/04/25 09:56:09;;;;;;;2.00;1.80;;;7.70;99.90;;;;;;5075224;28;20527;-76
2021/04/25 09:58:54;;;;;;;2.70;1.87;;;7.80;99.90;;;;;;5075514;28;20410;-77
2021/04/25 10:01:34;;;;;;;1.97;1.77;;;8.10;99.90;;;;;;5075191;28;20515;-75
2021/04/25 10:04:02;;;;;;;2.63;1.63;;;8.20;99.90;;;;;;5075187;28;20798;-76
2021/04/25 10:06:31;;;;;;;3.50;3.20;;;8.40;99.10;;;;;;5074803;28;20460;-75
2021/04/25 10:08:57;;;;;;;3.10;2.10;;;9.00;98.60;;;;;;5075007;28;20509;-76
2021/04/25 10:11:29;;;;;;;3.50;2.23;;;9.10;97.60;;;;;;5059812;28;20831;-75
2021/04/25 10:13:55;;;;;;;4.80;1.70;;;9.60;97.30;;;;;;5055101;28;20263;-75
2021/04/25 10:16:21;;;;;;;4.93;2.00;;;9.40;97.50;;;;;;5036322;28;20483;-75
2021/04/25 10:18:48;;;;;;;2.93;2.20;;;10.10;94.60;;;;;;5068748;28;20412;-75
2021/04/25 10:21:13;;;;;;;3.70;2.03;;;9.50;94.70;;;;;;5040565;28;20741;-76
2021/04/25 10:23:39;;;;;;;2.93;1.70;;;9.00;95.20;;;;;;5055178;28;20465;-76
2021/04/25 10:26:17;;;;;;;2.70;1.60;;;9.30;95.80;;;;;;5055038;28;20572;-77
2021/04/25 10:29:00;;;;;;;2.87;2.00;;;9.30;94.40;;;;;;5055275;28;20397;-76
2021/04/25 10:31:31;;;;;;;2.13;1.70;;;9.80;94.20;;;;;;5039136;28;20417;-76
2021/04/25 10:34:20;;;;;;;3.37;1.97;;;10.10;93.00;;;;;;5070925;28;20438;-76
2021/04/25 10:39:36;;;;;;;3.70;1.73;;;10.00;92.30;;;;;;5071713;28;20499;-76
2021/04/25 10:42:17;;;;;;;2.47;2.03;;;10.40;89.80;;;;;;5076064;28;20224;-77
2021/04/25 10:47:32;;;;;;;2.07;1.87;;;10.90;82.00;;;;;;5074270;28;20460;-75
2021/04/25 10:50:18;;;;;;;2.37;1.30;;;10.40;82.80;;;;;;5075234;28;20820;-79
2021/04/25 10:52:46;;;;;;;1.80;1.70;;;10.10;83.50;;;;;;5058031;28;20428;-75
2021/04/25 10:55:12;;;;;;;2.90;1.40;;;10.50;82.10;;;;;;5078260;28;20397;-76
2021/04/25 10:57:53;;;;;;;2.73;1.73;;;10.70;84.40;;;;;;5078691;28;20424;-77
2021/04/25 11:00:30;;;;;;;2.90;1.43;;;10.70;83.20;;;;;;5077754;28;20608;-75
2021/04/25 11:02:57;;;;;;;2.10;1.43;;;11.10;81.00;;;;;;5076568;28;20396;-75
2021/04/25 11:08:03;;;;;;;2.13;1.70;;;10.50;82.30;;;;;;5073563;28;20397;-76
2021/04/25 11:10:45;;;;;;;1.50;1.33;;;10.90;82.60;;;;;;5075698;28;20392;-75
2021/04/25 11:16:08;;;;;;;1.73;1.47;;;11.00;80.30;;;;;;5071008;28;20433;-75
2021/04/25 11:18:49;;;;;;;1.53;1.20;;;11.00;79.40;;;;;;5069633;28;20431;-73
2021/04/25 11:21:26;;;;;;;2.07;1.50;;;11.10;80.20;;;;;;5075339;28;20408;-76
2021/04/25 11:23:56;;;;;;;1.50;1.40;;;10.30;80.20;;;;;;5075668;28;20408;-75
2021/04/25 11:26:34;;;;;;;2.07;1.40;;;10.80;81.80;;;;;;5076001;28;20455;-76
2021/04/25 11:29:25;;;;;;;1.97;1.10;;;10.70;80.70;;;;;;5058565;28;20404;-76
2021/04/25 11:31:54;;;;;;;1.53;1.33;;;10.50;81.20;;;;;;5076437;28;20430;-77
2021/04/25 11:34:29;;;;;;;1.57;1.43;;;10.80;78.20;;;;;;5074317;28;20401;-76
2021/04/25 11:37:14;;;;;;;2.27;1.50;;;11.20;76.90;;;;;;5073509;28;20451;-74
2021/04/25 11:39:42;;;;;;;2.00;1.23;;;11.00;76.70;;;;;;5069744;28;20500;-75
2021/04/25 11:42:10;;;;;;;1.83;1.50;;;10.80;75.60;;;;;;5068796;28;20412;-75
2021/04/25 11:44:38;;;;;;;1.27;1.17;;;11.10;72.30;;;;;;5074220;28;20434;-75
2021/04/25 11:47:12;;;;;;;1.70;1.10;;;10.90;65.30;;;;;;5073668;28;20476;-75
2021/04/25 11:49:39;;;;;;;2.07;1.30;;;11.20;59.80;;;;;;5075088;28;20865;-76
2021/04/25 11:52:11;;;;;;;1.40;1.20;;;11.40;59.20;;;;;;5077448;28;20491;-74
2021/04/25 11:54:38;;;;;;;2.53;1.10;;;11.50;58.30;;;;;;5076101;28;20400;-74
2021/04/25 11:57:11;;;;;;;1.90;0.80;;;11.70;57.70;;;;;;5073865;28;20459;-75
2021/04/25 11:59:49;;;;;;;1.60;1.00;;;11.50;58.00;;;;;;5054939;28;20412;-75
2021/04/25 12:02:15;;;;;;;3.50;1.10;;;11.40;57.60;;;;;;5072887;28;20408;-75
2021/04/25 12:04:48;;;;;;;1.30;1.07;;;11.60;57.70;;;;;;5073777;28;20926;-74
2021/04/25 12:07:44;;;;;;;1.97;0.90;;;11.00;58.10;;;;;;5073246;28;20240;-73
2021/04/25 12:10:17;;;;;;;1.70;1.57;;;10.90;58.20;;;;;;5073963;28;20420;-76
2021/04/25 12:13:09;;;;;;;0.97;0.87;;;10.90;58.50;;;;;;5056289;28;20408;-74
2021/04/25 12:15:44;;;;;;;3.27;1.13;;;11.10;57.20;;;;;;5073354;28;20915;-74
2021/04/25 12:18:10;;;;;;;2.80;1.30;;;11.20;56.90;;;;;;5062187;28;20483;-74
2021/04/25 12:21:02;;;;;;;2.30;0.90;;;11.00;56.40;;;;;;5070342;28;20933;-73
2021/04/25 12:23:31;;;;;;;1.40;1.00;;;11.20;56.50;;;;;;5050614;28;20448;-74
2021/04/25 12:25:56;;;;;;;2.30;0.87;;;11.30;56.30;;;;;;5050379;28;20456;-74
2021/04/25 12:28:38;;;;;;;1.50;1.00;;;11.20;55.00;;;;;;5051835;28;20409;-74
2021/04/25 12:31:05;;;;;;;1.10;0.90;;;11.30;55.30;;;;;;5051714;28;20216;-74
2021/04/25 12:33:44;;;;;;;2.07;1.20;;;11.10;55.10;;;;;;5057053;28;20419;-78
2021/04/25 12:36:13;;;;;;;1.50;1.00;;;11.20;55.40;;;;;;5052485;28;20459;-74
2021/04/25 12:38:40;;;;;;;2.50;0.90;;;11.20;54.90;;;;;;5046070;28;20440;-74
2021/04/25 12:41:10;;;;;;;3.57;0.90;;;11.20;54.70;;;;;;5072000;28;20543;-74
2021/04/25 12:43:47;;;;;;;1.93;0.90;;;11.40;54.30;;;;;;5073449;28;20404;-75
2021/04/25 12:46:22;;;;;;;2.20;1.00;;;11.20;54.00;;;;;;5055943;28;21166;-77
2021/04/25 12:48:50;;;;;;;1.20;0.97;;;10.90;53.30;;;;;;5071354;28;20400;-75
2021/04/25 12:51:24;;;;;;;1.47;0.90;;;11.00;53.30;;;;;;5071360;28;20413;-74
2021/04/25 12:53:50;;;;;;;2.30;1.23;;;11.40;53.20;;;;;;5071796;28;20404;-74
2021/04/25 12:56:34;;;;;;;1.00;0.90;;;11.70;52.80;;;;;;5070907;28;20764;-74
2021/04/25 12:59:15;;;;;;;3.30;0.90;;;12.00;52.60;;;;;;5071732;28;20648;-74
2021/04/25 13:02:07;;;;;;;1.20;0.80;;;11.40;53.00;;;;;;5070996;28;20538;-74
2021/04/25 13:04:40;;;;;;;1.30;1.10;;;11.20;53.00;;;;;;5071545;28;20408;-74
2021/04/25 13:07:19;;;;;;;1.40;1.10;;;11.30;52.70;;;;;;5071561;28;20962;-74
2021/04/25 13:09:46;;;;;;;1.83;0.83;;;11.50;52.40;;;;;;5072954;28;20400;-74